Time;durP1;ratioP1;P1;durP2;ratioP2;P2;SDS_P1;SDS_P2;PMS_P1;PMS_P2;Temp;Humidity;BMP_temperature;BMP_pressure;BME280_temperature;BME280_humidity;BME280_pressure;Samples;Min_cycle;Max_cycle;Signal;HPM_P1;HPM_P2
2022/07/21 00:01:13;;;;;;;5.95;3.38;;;;;;;15.65;76.26;95276.97;5061825;28;20093;-67
2022/07/21 00:03:40;;;;;;;11.27;3.30;;;;;;;15.46;76.62;95272.06;5059809;28;20123;-67
2022/07/21 00:06:07;;;;;;;5.57;3.92;;;;;;;15.40;77.77;95285.41;5061255;28;20129;-68
2022/07/21 00:08:34;;;;;;;6.25;4.18;;;;;;;15.32;77.94;95281.41;5060137;28;20040;-67
2022/07/21 00:11:02;;;;;;;11.10;3.80;;;;;;;15.25;77.71;95280.81;5059384;28;20078;-67
2022/07/21 00:13:29;;;;;;;4.95;3.30;;;;;;;15.13;77.97;95273.13;5044392;28;20040;-68
2022/07/21 00:15:57;;;;;;;7.50;4.13;;;;;;;15.13;78.64;95280.97;5056171;28;21402;-67
2022/07/21 00:18:28;;;;;;;8.35;4.32;;;;;;;15.06;78.43;95283.00;5061327;28;20048;-68
2022/07/21 00:20:56;;;;;;;6.00;4.22;;;;;;;14.92;79.43;95287.84;5057017;28;20136;-67
2022/07/21 00:23:24;;;;;;;5.45;3.97;;;;;;;14.83;80.56;95276.22;5061039;28;20039;-68
2022/07/21 00:25:51;;;;;;;6.13;4.35;;;;;;;14.77;80.71;95264.09;5040473;28;20862;-67
2022/07/21 00:28:18;;;;;;;8.07;4.60;;;;;;;14.74;80.53;95275.84;5062178;28;20041;-67
2022/07/21 00:30:46;;;;;;;7.72;3.85;;;;;;;14.70;81.00;95274.78;5057116;28;20044;-67
2022/07/21 00:33:13;;;;;;;7.13;4.85;;;;;;;14.65;81.57;95283.34;5062574;28;20036;-68
2022/07/21 00:35:40;;;;;;;7.32;4.90;;;;;;;14.66;82.25;95279.72;5060290;28;21434;-67
2022/07/21 00:38:07;;;;;;;9.40;5.20;;;;;;;14.64;82.61;95284.41;5062595;28;20044;-67
2022/07/21 00:40:33;;;;;;;5.97;4.55;;;;;;;14.48;83.11;95272.13;5057265;28;20762;-67
2022/07/21 00:43:00;;;;;;;8.27;5.57;;;;;;;14.48;83.21;95277.38;5059626;28;20056;-67
2022/07/21 00:45:27;;;;;;;7.85;4.72;;;;;;;14.53;83.33;95274.78;5063862;28;20037;-67
2022/07/21 00:47:54;;;;;;;7.22;5.25;;;;;;;14.60;83.80;95266.78;5056237;28;20052;-67
2022/07/21 00:50:21;;;;;;;6.43;4.95;;;;;;;14.65;83.66;95278.13;5058747;28;20048;-67
2022/07/21 00:52:48;;;;;;;8.88;4.82;;;;;;;14.65;83.66;95279.94;5059339;28;20448;-67
2022/07/21 00:55:19;;;;;;;15.77;5.28;;;;;;;14.60;84.07;95278.06;5060409;28;20036;-67
2022/07/21 00:57:46;;;;;;;10.68;6.53;;;;;;;14.53;84.20;95280.03;5055963;28;20664;-68
2022/07/21 01:00:18;;;;;;;7.22;5.20;;;;;;;14.48;85.17;95277.38;5045507;28;20052;-68
2022/07/21 01:02:45;;;;;;;7.80;5.53;;;;;;;14.43;85.02;95279.94;5041630;28;20047;-67
2022/07/21 01:05:14;;;;;;;8.32;5.75;;;;;;;14.30;85.22;95286.34;5065777;28;20099;-68
2022/07/21 01:07:44;;;;;;;9.25;5.65;;;;;;;14.18;86.66;95283.81;5058843;28;20041;-68
2022/07/21 01:10:13;;;;;;;8.05;5.28;;;;;;;14.03;87.68;95270.53;5060924;28;20108;-68
2022/07/21 01:12:41;;;;;;;10.35;5.25;;;;;;;14.16;88.21;95280.66;5056943;28;20043;-68
2022/07/21 01:15:10;;;;;;;15.65;5.78;;;;;;;14.19;87.45;95280.16;5057310;28;20040;-68
2022/07/21 01:17:37;;;;;;;7.45;5.43;;;;;;;14.16;87.25;95278.03;5062614;28;20121;-68
2022/07/21 01:20:11;;;;;;;9.70;5.70;;;;;;;14.16;87.46;95267.56;5042167;28;20045;-68
2022/07/21 01:22:41;;;;;;;7.45;5.60;;;;;;;14.09;88.14;95267.72;5064982;28;20078;-68
2022/07/21 01:25:09;;;;;;;32.42;6.57;;;;;;;14.03;88.39;95268.69;5036836;28;20048;-67
2022/07/21 01:27:36;;;;;;;9.10;6.40;;;;;;;13.98;88.52;95262.59;5061769;28;20036;-67
2022/07/21 01:30:09;;;;;;;8.60;4.82;;;;;;;13.98;88.41;95263.38;5068007;28;20048;-67
2022/07/21 01:32:40;;;;;;;10.20;6.10;;;;;;;13.93;87.86;95260.69;5068163;28;20056;-67
2022/07/21 01:35:11;;;;;;;16.65;5.85;;;;;;;13.83;88.34;95266.59;5055704;28;20070;-67
2022/07/21 01:37:42;;;;;;;8.15;5.13;;;;;;;13.81;88.47;95273.91;5059791;28;20521;-67
2022/07/21 01:42:56;;;;;;;9.15;4.95;;;;;;;13.88;88.37;95258.81;5059924;28;20528;-68
2022/07/21 01:45:23;;;;;;;7.30;4.50;;;;;;;13.92;88.53;95259.91;5055392;28;20055;-67
2022/07/21 01:47:50;;;;;;;6.20;4.75;;;;;;;13.90;88.06;95258.53;5057619;28;20043;-68
2022/07/21 01:50:18;;;;;;;7.88;5.10;;;;;;;13.94;88.01;95268.31;5057612;28;20056;-68
2022/07/21 01:52:45;;;;;;;7.30;4.47;;;;;;;13.85;88.23;95264.53;5058075;28;20059;-67
2022/07/21 01:55:12;;;;;;;8.80;4.55;;;;;;;13.81;88.24;95263.44;5057952;28;20111;-68
2022/07/21 01:57:39;;;;;;;8.18;4.82;;;;;;;13.80;88.79;95261.81;5054961;28;20045;-67
2022/07/21 02:00:07;;;;;;;5.28;4.35;;;;;;;13.82;88.73;95258.97;5058661;28;20048;-67
2022/07/21 02:02:34;;;;;;;11.20;3.97;;;;;;;13.84;89.38;95252.44;5054956;28;20047;-66
2022/07/21 02:05:00;;;;;;;6.28;4.53;;;;;;;13.89;88.72;95244.66;5058855;28;20058;-67
2022/07/21 02:07:27;;;;;;;6.93;4.07;;;;;;;13.92;88.64;95249.44;5055053;28;20036;-67
2022/07/21 02:09:54;;;;;;;10.30;5.30;;;;;;;13.83;89.33;95250.06;5060228;28;20066;-67
2022/07/21 02:12:21;;;;;;;5.45;3.83;;;;;;;13.86;89.38;95245.13;5055249;28;20047;-66
2022/07/21 02:14:48;;;;;;;6.35;4.22;;;;;;;13.87;89.80;95240.72;5039677;28;20080;-67
2022/07/21 02:17:15;;;;;;;5.40;4.45;;;;;;;13.87;89.71;95241.50;5054881;28;20048;-66
2022/07/21 02:19:43;;;;;;;7.10;4.43;;;;;;;13.85;89.59;95248.03;5057147;28;20041;-67
2022/07/21 02:22:10;;;;;;;6.68;4.75;;;;;;;13.75;89.31;95243.41;5057363;28;20051;-67
2022/07/21 02:24:39;;;;;;;7.25;5.18;;;;;;;13.63;89.56;95242.72;5056204;28;20041;-67
2022/07/21 02:27:06;;;;;;;6.68;3.90;;;;;;;13.57;90.23;95240.03;5056619;28;20048;-66
2022/07/21 02:29:33;;;;;;;9.88;4.70;;;;;;;13.48;90.58;95243.28;5041705;28;20049;-67
2022/07/21 02:32:02;;;;;;;6.70;4.93;;;;;;;13.47;90.78;95237.28;5059836;28;20588;-66
2022/07/21 02:34:29;;;;;;;8.95;4.95;;;;;;;13.48;91.06;95244.06;5038355;28;20079;-66
2022/07/21 02:36:56;;;;;;;11.60;4.82;;;;;;;13.50;91.22;95242.00;5062157;28;20082;-66
2022/07/21 02:39:23;;;;;;;12.98;4.85;;;;;;;13.51;91.77;95248.84;5072231;28;20287;-67
2022/07/21 02:41:50;;;;;;;6.43;4.68;;;;;;;13.50;91.01;95246.47;5059978;28;20629;-66
2022/07/21 02:44:17;;;;;;;6.20;4.97;;;;;;;13.42;91.53;95245.03;5056032;28;20050;-66
2022/07/21 02:46:43;;;;;;;6.85;5.20;;;;;;;13.35;91.28;95239.16;5063283;28;20045;-66
2022/07/21 02:49:10;;;;;;;7.82;4.40;;;;;;;13.41;91.48;95245.28;5056578;28;20041;-66
2022/07/21 02:51:37;;;;;;;7.43;4.47;;;;;;;13.42;91.05;95250.28;5057680;28;20509;-66
2022/07/21 02:54:04;;;;;;;21.55;5.22;;;;;;;13.37;91.60;95250.97;5039193;28;20045;-66
2022/07/21 02:56:31;;;;;;;6.07;4.75;;;;;;;13.37;91.93;95247.56;5057871;28;20044;-67
2022/07/21 02:58:58;;;;;;;8.48;4.75;;;;;;;13.29;91.89;95250.53;5057468;28;20593;-66
2022/07/21 03:01:25;;;;;;;7.22;5.72;;;;;;;13.20;92.38;95250.94;5055128;28;20060;-67
2022/07/21 03:03:51;;;;;;;8.32;5.30;;;;;;;13.20;93.19;95248.31;5057939;28;20052;-66
2022/07/21 03:06:19;;;;;;;7.38;4.85;;;;;;;13.14;93.27;95238.81;5054939;28;20982;-67
2022/07/21 03:08:45;;;;;;;6.82;5.30;;;;;;;13.07;93.95;95248.66;5059314;28;20041;-67
2022/07/21 03:11:12;;;;;;;7.32;4.80;;;;;;;13.09;93.97;95245.78;5053509;28;20040;-67
2022/07/21 03:13:39;;;;;;;11.18;5.13;;;;;;;13.11;94.30;95249.75;5057229;28;20045;-67
2022/07/21 03:16:06;;;;;;;18.58;6.07;;;;;;;13.09;94.55;95246.59;5053031;28;20040;-65
2022/07/21 03:18:33;;;;;;;12.35;5.40;;;;;;;13.17;94.17;95251.41;5057321;28;20040;-68
2022/07/21 03:21:00;;;;;;;13.65;5.50;;;;;;;13.15;94.14;95250.84;5054035;28;20073;-68
2022/07/21 03:23:27;;;;;;;8.77;5.55;;;;;;;13.14;94.56;95249.28;5037935;28;20049;-66
2022/07/21 03:25:54;;;;;;;9.02;5.25;;;;;;;13.16;94.37;95246.41;5037305;28;20094;-66
2022/07/21 03:28:23;;;;;;;15.30;5.63;;;;;;;13.23;94.56;95256.72;5059565;28;20056;-66
2022/07/21 03:30:50;;;;;;;12.55;5.43;;;;;;;13.33;95.66;95256.94;5041992;28;20469;-65
2022/07/21 03:33:17;;;;;;;10.48;5.25;;;;;;;13.38;95.61;95249.16;5056353;28;20770;-66
2022/07/21 03:35:44;;;;;;;14.57;5.80;;;;;;;13.51;94.74;95259.31;5061063;28;20509;-66
2022/07/21 03:38:10;;;;;;;12.63;5.28;;;;;;;13.57;95.31;95258.34;5040002;28;20087;-66
2022/07/21 03:40:38;;;;;;;10.75;5.70;;;;;;;13.64;94.60;95265.25;5059906;28;20041;-67
2022/07/21 03:43:07;;;;;;;13.15;5.90;;;;;;;13.74;94.04;95262.78;5058312;28;20040;-66
2022/07/21 03:45:35;;;;;;;17.05;6.13;;;;;;;13.76;94.10;95260.72;5060604;28;20082;-66
2022/07/21 03:48:05;;;;;;;9.40;5.45;;;;;;;13.85;93.54;95254.03;5057088;28;20054;-67
2022/07/21 03:50:32;;;;;;;11.02;6.63;;;;;;;13.87;92.62;95251.97;5061595;28;20117;-67
2022/07/21 03:52:59;;;;;;;13.82;6.45;;;;;;;13.95;91.72;95254.19;5054408;28;20650;-67
2022/07/21 03:55:27;;;;;;;7.32;5.50;;;;;;;14.06;91.36;95265.59;5058942;28;20071;-67
2022/07/21 03:57:57;;;;;;;11.75;5.30;;;;;;;14.05;91.20;95268.47;5061182;28;20052;-67
2022/07/21 04:00:31;;;;;;;10.07;6.20;;;;;;;14.04;91.05;95272.88;5057713;28;20044;-67
2022/07/21 04:02:59;;;;;;;11.18;5.20;;;;;;;14.13;90.85;95270.66;5063881;28;20053;-67
2022/07/21 04:05:27;;;;;;;9.55;6.43;;;;;;;14.21;90.80;95272.84;5057820;28;20059;-67
2022/07/21 04:07:54;;;;;;;9.35;6.30;;;;;;;14.29;90.45;95269.00;5060550;28;20117;-67
2022/07/21 04:10:27;;;;;;;9.15;6.15;;;;;;;14.46;90.29;95274.22;5058146;28;20786;-67
2022/07/21 04:12:55;;;;;;;10.25;6.05;;;;;;;14.60;89.30;95275.44;5062900;28;20048;-67
2022/07/21 04:15:22;;;;;;;9.95;5.88;;;;;;;14.67;89.19;95281.28;5055759;28;20067;-67
2022/07/21 04:17:50;;;;;;;9.18;5.88;;;;;;;14.69;88.64;95279.22;5043853;28;20036;-67
2022/07/21 04:20:19;;;;;;;13.45;6.10;;;;;;;14.71;88.47;95277.16;5054761;28;20060;-67
2022/07/21 04:22:48;;;;;;;9.13;5.50;;;;;;;14.86;88.45;95279.13;5061776;28;21052;-67
2022/07/21 04:25:16;;;;;;;7.43;6.07;;;;;;;14.99;88.07;95277.94;5054017;28;20033;-67
2022/07/21 04:27:44;;;;;;;12.57;6.20;;;;;;;15.12;88.26;95275.97;5056330;28;20044;-67
2022/07/21 04:30:13;;;;;;;17.23;6.53;;;;;;;15.15;88.67;95276.28;5059774;28;20032;-67
2022/07/21 04:32:40;;;;;;;14.25;6.35;;;;;;;15.18;88.39;95280.22;5063662;28;20544;-67
2022/07/21 04:35:09;;;;;;;9.63;6.43;;;;;;;15.27;88.71;95273.50;5060241;28;20108;-67
2022/07/21 04:37:36;;;;;;;10.70;6.93;;;;;;;15.44;87.79;95276.78;5057077;28;20483;-67
2022/07/21 04:40:05;;;;;;;7.95;5.85;;;;;;;15.58;87.17;95279.00;5059853;28;20065;-67
2022/07/21 04:42:33;;;;;;;11.20;7.15;;;;;;;15.60;86.52;95261.16;5054952;28;20052;-67
2022/07/21 04:45:02;;;;;;;10.45;5.88;;;;;;;15.81;85.88;95283.94;5043301;28;20115;-67
2022/07/21 04:47:29;;;;;;;11.73;6.10;;;;;;;15.90;85.75;95283.44;5054130;28;20775;-67
2022/07/21 04:49:56;;;;;;;13.68;6.57;;;;;;;15.96;85.35;95285.06;5078515;28;20477;-68
2022/07/21 04:52:23;;;;;;;11.13;6.13;;;;;;;16.04;85.38;95271.44;5038734;28;20045;-67
2022/07/21 04:54:50;;;;;;;15.40;6.38;;;;;;;16.18;85.61;95285.72;5060106;28;20093;-68
2022/07/21 04:57:16;;;;;;;11.40;6.22;;;;;;;16.37;85.47;95280.03;5036503;28;20064;-67
2022/07/21 04:59:43;;;;;;;17.77;7.30;;;;;;;16.52;83.84;95287.97;5060512;28;20681;-68
2022/07/21 05:02:10;;;;;;;15.27;6.65;;;;;;;16.67;83.58;95286.47;5059454;28;20036;-67
2022/07/21 05:04:37;;;;;;;10.73;6.88;;;;;;;16.80;82.92;95278.09;5061613;28;20033;-68
2022/07/21 05:07:04;;;;;;;12.63;6.07;;;;;;;17.04;81.87;95288.19;5056160;28;20421;-67
2022/07/21 05:09:31;;;;;;;10.02;6.15;;;;;;;17.18;80.33;95290.03;5046057;28;20028;-67
2022/07/21 05:11:58;;;;;;;14.20;6.45;;;;;;;17.32;78.88;95292.97;5059913;28;20056;-68
2022/07/21 05:14:25;;;;;;;11.20;6.28;;;;;;;17.47;79.02;95291.41;5056058;28;20037;-68
2022/07/21 05:16:52;;;;;;;12.15;6.10;;;;;;;17.56;77.51;95295.88;5060070;28;20059;-67
2022/07/21 05:19:19;;;;;;;10.15;6.00;;;;;;;17.72;76.58;95293.25;5056018;28;20044;-68
2022/07/21 05:21:46;;;;;;;8.00;5.72;;;;;;;17.86;75.86;95296.13;5059536;28;20032;-66
2022/07/21 05:24:14;;;;;;;12.60;5.63;;;;;;;17.95;75.45;95291.91;5060597;28;20047;-66
2022/07/21 05:26:41;;;;;;;10.43;6.43;;;;;;;18.09;74.71;95292.16;5065481;28;20094;-66
2022/07/21 05:29:08;;;;;;;12.38;6.22;;;;;;;18.22;75.49;95293.44;5056450;28;20133;-67
2022/07/21 05:31:35;;;;;;;14.23;6.38;;;;;;;18.29;75.36;95301.88;5059471;28;20544;-67
2022/07/21 05:34:02;;;;;;;9.50;5.75;;;;;;;18.42;75.58;95298.69;5061565;28;20231;-66
2022/07/21 05:36:29;;;;;;;11.68;6.60;;;;;;;18.57;74.31;95302.31;5058950;28;20040;-67
2022/07/21 05:38:56;;;;;;;10.10;6.95;;;;;;;18.73;73.61;95301.19;5060508;28;20051;-68
2022/07/21 05:41:23;;;;;;;14.07;6.70;;;;;;;18.79;73.52;95279.00;5054980;28;20907;-67
2022/07/21 05:43:50;;;;;;;8.65;6.32;;;;;;;18.84;72.71;95283.50;5058333;28;20048;-67
2022/07/21 05:46:17;;;;;;;15.50;5.90;;;;;;;18.93;72.37;95289.00;5052273;28;20158;-68
2022/07/21 05:48:44;;;;;;;36.45;7.95;;;;;;;19.09;72.83;95293.13;5057041;28;20056;-67
2022/07/21 05:51:11;;;;;;;9.98;5.65;;;;;;;19.26;71.43;95298.81;5057930;28;20040;-67
2022/07/21 05:53:44;;;;;;;8.35;5.05;;;;;;;19.37;70.36;95296.13;5065749;28;20052;-68
2022/07/21 05:56:11;;;;;;;8.65;5.20;;;;;;;19.35;69.65;95290.31;5058996;28;20075;-68
2022/07/21 05:58:38;;;;;;;10.70;6.15;;;;;;;19.44;69.48;95293.94;5041498;28;20047;-68
2022/07/21 06:01:08;;;;;;;8.70;5.85;;;;;;;19.57;68.34;95287.25;5054536;28;20055;-68
2022/07/21 06:03:40;;;;;;;9.20;5.85;;;;;;;19.66;68.09;95291.69;5057596;28;20048;-68
2022/07/21 06:06:07;;;;;;;9.60;6.15;;;;;;;19.79;67.68;95284.19;5057885;28;20060;-68
2022/07/21 06:08:37;;;;;;;13.82;6.88;;;;;;;19.90;64.96;95293.63;5055179;28;20045;-68
2022/07/21 06:11:03;;;;;;;15.82;6.28;;;;;;;19.96;63.72;95274.00;5054273;28;20130;-67
2022/07/21 06:13:30;;;;;;;15.15;6.38;;;;;;;20.15;63.77;95294.44;5053804;28;20059;-67
2022/07/21 06:15:57;;;;;;;15.43;6.85;;;;;;;20.20;60.68;95294.38;5057647;28;20052;-67
2022/07/21 06:18:24;;;;;;;11.82;6.90;;;;;;;20.14;62.20;95291.00;5058211;28;20102;-67
2022/07/21 06:20:51;;;;;;;10.70;6.40;;;;;;;20.05;62.08;95288.16;5060657;28;20061;-67
2022/07/21 06:23:18;;;;;;;14.40;6.95;;;;;;;19.85;62.77;95273.28;5057910;28;20032;-70
2022/07/21 06:25:45;;;;;;;17.52;6.78;;;;;;;19.92;64.03;95288.84;5080256;28;20051;-70
2022/07/21 06:28:12;;;;;;;12.68;6.40;;;;;;;19.96;63.34;95274.00;5032468;28;20054;-69
2022/07/21 06:30:39;;;;;;;12.23;5.28;;;;;;;20.16;61.51;95266.94;5065598;28;20097;-71
2022/07/21 06:33:06;;;;;;;11.27;5.95;;;;;;;20.39;59.60;95282.00;5065934;28;20541;-66
2022/07/21 06:35:33;;;;;;;16.83;6.80;;;;;;;20.57;59.61;95282.34;5059426;28;20189;-65
2022/07/21 06:38:00;;;;;;;11.77;5.63;;;;;;;20.69;58.89;95274.81;5062602;28;20044;-66
2022/07/21 06:40:26;;;;;;;13.35;5.82;;;;;;;20.77;57.37;95276.81;5058962;28;20513;-68
2022/07/21 06:42:53;;;;;;;6.47;5.25;;;;;;;20.84;58.05;95270.41;5064283;28;20072;-68
2022/07/21 06:45:40;;;;;;;8.43;4.03;;;;;;;21.03;57.65;95279.16;5041950;28;20908;-67
2022/07/21 06:48:08;;;;;;;11.68;4.95;;;;;;;21.24;56.50;95273.56;5043634;28;20048;-68
2022/07/21 06:50:36;;;;;;;21.63;5.00;;;;;;;21.33;57.55;95277.91;5053970;28;20105;-67
2022/07/21 06:53:05;;;;;;;15.35;4.70;;;;;;;21.49;54.29;95281.13;5057634;28;20807;-66
2022/07/21 06:55:32;;;;;;;7.45;4.30;;;;;;;21.56;52.91;95281.56;5053887;28;20036;-66
2022/07/21 06:58:12;;;;;;;12.27;4.63;;;;;;;21.65;54.05;95275.63;5061331;28;20052;-67
2022/07/21 07:00:38;;;;;;;10.30;4.97;;;;;;;21.58;54.45;95268.81;5056468;28;20049;-65
2022/07/21 07:03:05;;;;;;;12.45;4.82;;;;;;;21.79;55.50;95270.31;5058061;28;20109;-67
2022/07/21 07:05:32;;;;;;;17.33;5.43;;;;;;;22.00;56.64;95274.19;5056239;28;20039;-66
2022/07/21 07:07:59;;;;;;;10.45;4.60;;;;;;;22.23;56.45;95266.38;5042207;28;20045;-69
2022/07/21 07:10:26;;;;;;;12.75;5.32;;;;;;;22.41;54.72;95270.06;5072087;28;20044;-67
2022/07/21 07:12:54;;;;;;;16.73;5.63;;;;;;;22.37;55.75;95261.13;5056678;28;20045;-70
2022/07/21 07:15:42;;;;;;;14.55;5.28;;;;;;;22.65;55.74;95267.97;5051206;28;20056;-68
2022/07/21 07:18:08;;;;;;;15.77;5.18;;;;;;;22.69;55.09;95266.31;5054752;28;20048;-73
2022/07/21 07:20:36;;;;;;;11.25;4.53;;;;;;;22.66;55.93;95240.34;5071235;28;20059;-70
2022/07/21 07:23:03;;;;;;;7.72;4.80;;;;;;;22.84;54.33;95259.09;5067520;28;20051;-69
2022/07/21 07:25:31;;;;;;;9.27;4.63;;;;;;;22.99;53.68;95255.31;5035295;28;20036;-69
2022/07/21 07:27:58;;;;;;;7.20;3.67;;;;;;;23.11;51.07;95241.56;5053369;28;20049;-69
2022/07/21 07:30:25;;;;;;;9.35;3.47;;;;;;;23.31;50.67;95246.38;5056028;28;20060;-69
2022/07/21 07:32:52;;;;;;;11.43;4.10;;;;;;;23.46;49.71;95254.00;5052555;28;20044;-69
2022/07/21 07:35:19;;;;;;;14.00;3.65;;;;;;;23.67;49.77;95251.63;5056448;28;20743;-69
2022/07/21 07:37:46;;;;;;;6.50;3.95;;;;;;;23.64;48.60;95254.91;5053088;28;20811;-69
2022/07/21 07:40:16;;;;;;;7.15;3.85;;;;;;;23.78;49.82;95249.50;5056345;28;20052;-69
2022/07/21 07:42:43;;;;;;;9.77;3.20;;;;;;;23.96;46.84;95255.72;5034940;28;20461;-69
2022/07/21 07:45:11;;;;;;;5.13;3.60;;;;;;;24.17;46.72;95249.88;5057208;28;20047;-69
2022/07/21 07:47:39;;;;;;;9.48;3.30;;;;;;;24.33;45.74;95243.06;5053264;28;20048;-69
2022/07/21 07:50:08;;;;;;;8.40;3.30;;;;;;;24.41;44.61;95250.28;5055576;28;20048;-69
2022/07/21 07:52:37;;;;;;;9.82;3.72;;;;;;;24.56;44.67;95230.47;5053840;28;20044;-68
2022/07/21 07:55:07;;;;;;;6.60;3.42;;;;;;;24.57;44.24;95237.34;5054923;28;20257;-68
2022/07/21 07:57:35;;;;;;;7.18;3.47;;;;;;;24.78;45.43;95231.44;5057447;28;21488;-68
2022/07/21 08:00:08;;;;;;;10.82;3.25;;;;;;;25.04;44.40;95236.00;5053854;28;20048;-68
2022/07/21 08:02:55;;;;;;;7.53;3.80;;;;;;;25.34;44.65;95235.09;5053966;28;20056;-68
2022/07/21 08:05:23;;;;;;;8.38;3.55;;;;;;;25.57;44.85;95229.56;5024254;28;20540;-68
2022/07/21 08:07:49;;;;;;;5.03;3.25;;;;;;;25.75;42.64;95228.44;5056235;28;20041;-68
2022/07/21 08:10:16;;;;;;;6.25;3.15;;;;;;;25.90;42.55;95221.00;5053727;28;20686;-68
2022/07/21 08:13:03;;;;;;;11.05;3.58;;;;;;;25.94;43.23;95232.63;5058324;28;20040;-68
2022/07/21 08:15:33;;;;;;;4.50;3.05;;;;;;;26.01;42.94;95222.25;5058050;28;20043;-68
2022/07/21 08:18:01;;;;;;;4.53;3.17;;;;;;;26.04;43.36;95221.63;5058653;28;20047;-70
2022/07/21 08:20:28;;;;;;;7.75;3.47;;;;;;;26.19;42.21;95222.19;5058523;28;20712;-67
2022/07/21 08:22:55;;;;;;;5.28;2.65;;;;;;;26.21;43.43;95219.97;5061004;28;20059;-67
2022/07/21 08:25:22;;;;;;;7.78;2.85;;;;;;;26.26;42.39;95217.13;5039298;28;20880;-68
2022/07/21 08:27:49;;;;;;;10.55;3.80;;;;;;;26.34;42.17;95213.63;5059887;28;20056;-68
2022/07/21 08:30:16;;;;;;;6.72;3.08;;;;;;;26.36;42.74;95195.38;5039975;28;20621;-68
2022/07/21 08:32:43;;;;;;;5.05;2.63;;;;;;;26.64;42.50;95227.78;5058260;28;20040;-67
2022/07/21 08:35:10;;;;;;;6.07;3.05;;;;;;;26.64;42.13;95216.31;5057546;28;20040;-67
2022/07/21 08:37:40;;;;;;;3.92;3.08;;;;;;;26.72;42.13;95215.47;5057945;28;20055;-68
2022/07/21 08:40:09;;;;;;;3.72;3.08;;;;;;;27.02;42.06;95199.41;5060112;28;20049;-69
2022/07/21 08:42:37;;;;;;;7.72;3.20;;;;;;;27.30;40.86;95198.84;5057500;28;20052;-68
2022/07/21 08:45:05;;;;;;;5.57;3.03;;;;;;;27.48;41.06;95205.63;5060686;28;20044;-68
2022/07/21 08:47:34;;;;;;;4.28;2.47;;;;;;;27.60;41.73;95199.53;5038222;28;20101;-67
2022/07/21 08:50:10;;;;;;;11.55;3.92;;;;;;;27.78;40.40;95200.13;5061236;28;20059;-67
2022/07/21 08:52:37;;;;;;;6.15;3.00;;;;;;;27.78;40.73;95192.09;5032888;28;20096;-69
2022/07/21 08:55:05;;;;;;;9.75;3.45;;;;;;;27.99;40.79;95181.34;5030733;28;20087;-67
2022/07/21 08:57:32;;;;;;;13.60;3.67;;;;;;;28.06;39.85;95181.56;5027084;28;20041;-68
2022/07/21 08:59:59;;;;;;;5.88;3.20;;;;;;;28.38;41.06;95171.84;5026907;28;20124;-68
2022/07/21 09:02:34;;;;;;;6.70;2.90;;;;;;;28.77;38.90;95177.63;5024391;28;20045;-68
2022/07/21 09:05:04;;;;;;;4.75;2.65;;;;;;;28.81;38.87;95172.34;5028889;28;20037;-68
2022/07/21 09:08:06;;;;;;;6.18;2.80;;;;;;;28.58;38.21;95164.81;5027539;28;20648;-68
2022/07/21 09:10:34;;;;;;;8.15;2.25;;;;;;;28.85;37.01;95159.06;4981599;28;20042;-68
2022/07/21 09:13:04;;;;;;;6.07;2.75;;;;;;;28.86;37.15;95163.28;5020071;28;20049;-68
2022/07/21 09:15:32;;;;;;;10.70;3.20;;;;;;;29.31;37.11;95164.91;5017787;28;20045;-68
2022/07/21 09:18:13;;;;;;;8.13;2.80;;;;;;;29.47;37.00;95155.00;5022844;28;20048;-69
2022/07/21 09:20:49;;;;;;;3.65;2.40;;;;;;;29.39;36.70;95152.47;5025491;28;20048;-69
2022/07/21 09:23:18;;;;;;;4.47;2.72;;;;;;;29.75;36.52;95154.19;5010566;28;20049;-68
2022/07/21 09:25:55;;;;;;;5.57;3.00;;;;;;;29.79;36.27;95149.69;5024232;28;20052;-69
2022/07/21 09:28:29;;;;;;;5.20;2.85;;;;;;;29.79;36.24;95152.38;5028639;28;20033;-69
2022/07/21 09:31:01;;;;;;;3.67;2.58;;;;;;;30.15;36.02;95158.59;5029739;28;20055;-68
2022/07/21 09:33:34;;;;;;;7.20;2.78;;;;;;;30.34;34.61;95157.13;5034251;28;20045;-70
2022/07/21 09:36:01;;;;;;;;;;;;;;;30.62;32.42;95156.97;5033518;28;20045;-69
2022/07/21 09:38:29;;;;;;;15.93;2.78;;;;;;;30.59;33.33;95153.06;5038353;28;19925;-68
2022/07/21 09:41:17;;;;;;;4.43;2.92;;;;;;;30.74;32.90;95148.78;5030027;28;20045;-68
2022/07/21 09:43:45;;;;;;;4.68;2.70;;;;;;;30.76;31.15;95137.69;5034919;28;20542;-69
2022/07/21 09:46:16;;;;;;;4.78;2.50;;;;;;;30.88;31.79;95142.88;5037769;28;20130;-68
2022/07/21 09:48:45;;;;;;;5.35;2.22;;;;;;;31.04;31.57;95140.97;5039982;28;21557;-69
2022/07/21 09:51:37;;;;;;;3.03;2.28;;;;;;;31.17;31.29;95144.28;5037416;28;21426;-68
2022/07/21 09:54:07;;;;;;;5.72;2.42;;;;;;;31.31;30.63;95143.75;5067183;28;21118;-69
2022/07/21 09:56:37;;;;;;;4.80;2.50;;;;;;;31.35;30.75;95136.53;5062366;28;20044;-66
2022/07/21 09:59:06;;;;;;;7.53;2.10;;;;;;;31.65;30.10;95135.13;5066185;28;20618;-69
2022/07/21 10:01:35;;;;;;;3.97;2.45;;;;;;;31.92;29.51;95134.03;5060157;28;20040;-69
2022/07/21 10:04:04;;;;;;;5.75;2.05;;;;;;;31.57;30.10;95131.56;5062881;28;20049;-69
2022/07/21 10:06:37;;;;;;;10.57;2.13;;;;;;;31.08;31.38;95134.84;5057997;28;20040;-68
2022/07/21 10:09:08;;;;;;;3.42;2.20;;;;;;;31.08;30.64;95129.47;5062043;28;20070;-69
2022/07/21 10:11:39;;;;;;;13.27;2.85;;;;;;;31.24;30.88;95127.47;5054680;28;20268;-69
2022/07/21 10:14:10;;;;;;;2.58;2.15;;;;;;;31.39;30.01;95118.53;5055992;28;20052;-69
2022/07/21 10:16:37;;;;;;;3.38;2.63;;;;;;;31.57;30.96;95118.09;5057736;28;20044;-70
2022/07/21 10:19:26;;;;;;;5.57;2.05;;;;;;;31.28;28.85;95133.72;5036989;28;20131;-69
2022/07/21 10:22:20;;;;;;;7.65;2.88;;;;;;;31.57;29.84;95126.16;5058023;28;20125;-69
2022/07/21 10:24:47;;;;;;;4.30;2.13;;;;;;;31.75;29.57;95127.22;5058921;28;20048;-69
2022/07/21 10:27:14;;;;;;;5.85;1.90;;;;;;;32.08;29.00;95120.44;5038409;28;20052;-69
2022/07/21 10:29:47;;;;;;;7.45;2.42;;;;;;;32.18;27.97;95119.84;5055899;28;20036;-70
2022/07/21 10:32:16;;;;;;;4.35;2.42;;;;;;;32.06;28.98;95125.44;5057541;28;20037;-70
2022/07/21 10:34:44;;;;;;;6.70;2.38;;;;;;;31.79;28.75;95101.13;5054777;28;20048;-70
2022/07/21 10:37:31;;;;;;;6.47;2.20;;;;;;;31.77;28.54;95100.72;5057891;28;20045;-69
2022/07/21 10:39:58;;;;;;;5.63;2.33;;;;;;;31.90;28.22;95092.44;5055268;28;20063;-69
2022/07/21 10:42:25;;;;;;;14.18;2.78;;;;;;;31.90;28.67;95087.06;5073980;28;20044;-70
2022/07/21 10:44:52;;;;;;;9.57;3.10;;;;;;;31.91;28.60;95102.88;5036242;28;20836;-70
2022/07/21 10:47:21;;;;;;;17.85;3.33;;;;;;;32.03;29.03;95101.09;5057806;28;20100;-69
2022/07/21 10:50:00;;;;;;;6.97;3.17;;;;;;;32.25;28.16;95094.13;5055705;28;20071;-70
2022/07/21 10:52:41;;;;;;;6.15;2.45;;;;;;;32.54;27.45;95087.97;5038695;28;20041;-69
2022/07/21 10:55:11;;;;;;;7.75;2.42;;;;;;;32.27;28.33;95094.53;5054287;28;20068;-69
2022/07/21 10:57:41;;;;;;;4.43;2.20;;;;;;;32.29;28.14;95092.28;5055392;28;20581;-70
2022/07/21 11:00:23;;;;;;;7.55;2.50;;;;;;;32.37;28.12;95083.13;5056072;28;22275;-70
2022/07/21 11:02:53;;;;;;;7.82;2.13;;;;;;;32.69;27.55;95088.19;5055935;28;20045;-69
2022/07/21 11:05:21;;;;;;;4.80;1.90;;;;;;;32.63;27.23;95078.84;5033505;28;20728;-69
2022/07/21 11:08:10;;;;;;;2.65;2.30;;;;;;;32.51;26.91;95077.94;5039041;28;20048;-69
2022/07/21 11:10:43;;;;;;;5.25;2.20;;;;;;;32.68;26.60;95070.44;5052587;28;20572;-70
2022/07/21 11:13:11;;;;;;;7.40;2.10;;;;;;;32.90;26.62;95066.84;5059892;28;20044;-70
2022/07/21 11:15:53;;;;;;;4.28;2.45;;;;;;;32.91;27.04;95079.19;5053928;28;20021;-67
2022/07/21 11:18:22;;;;;;;4.60;2.35;;;;;;;33.36;26.88;95070.41;5054771;28;20048;-67
2022/07/21 11:21:15;;;;;;;6.63;3.20;;;;;;;33.58;25.96;95072.13;5054644;28;20094;-68
2022/07/21 11:23:47;;;;;;;6.73;2.77;;;;;;;33.55;26.25;95083.69;5055800;28;20041;-67
2022/07/21 11:26:17;;;;;;;4.85;2.88;;;;;;;33.63;26.16;95063.69;5055051;28;20040;-67
2022/07/21 11:28:45;;;;;;;4.82;2.45;;;;;;;33.57;25.92;95081.41;5055118;28;20792;-68
2022/07/21 11:31:20;;;;;;;10.65;2.50;;;;;;;33.66;24.50;95076.47;5056522;28;20048;-68
2022/07/21 11:33:48;;;;;;;6.18;1.90;;;;;;;33.69;25.33;95073.03;5055434;28;20186;-67
2022/07/21 11:36:30;;;;;;;3.97;2.70;;;;;;;33.91;25.53;95078.59;5056109;28;20052;-68
2022/07/21 11:39:04;;;;;;;3.55;2.13;;;;;;;33.65;24.65;95077.63;5052360;28;20053;-68
2022/07/21 11:41:31;;;;;;;;;;;;;;;33.48;24.96;95072.84;5057151;28;20071;-67
2022/07/21 11:43:58;;;;;;;4.40;2.30;;;;;;;33.66;24.81;95073.78;5053774;28;19932;-67